createdAt,value
2023-05-06T00:00:09.370Z,12.63
2023-05-06T00:02:37.215Z,14.05
2023-05-06T00:05:05.126Z,14.20
2023-05-06T00:07:34.324Z,12.30
2023-05-06T00:10:02.107Z,15.88
2023-05-06T00:12:29.904Z,12.65
2023-05-06T00:14:57.669Z,13.13
2023-05-06T00:17:25.466Z,12.65
2023-05-06T00:19:53.412Z,13.13
2023-05-06T00:22:21.165Z,13.57
2023-05-06T00:24:50.313Z,13.27
2023-05-06T00:27:18.067Z,14.73
2023-05-06T00:29:46.018Z,12.18
2023-05-06T00:32:13.812Z,12.15
2023-05-06T00:34:41.633Z,12.73
2023-05-06T00:37:09.418Z,14.18
2023-05-06T00:39:37.182Z,14.02
2023-05-06T00:42:06.381Z,12.65
2023-05-06T00:44:34.250Z,11.57
2023-05-06T00:47:02.604Z,15.30
2023-05-06T00:49:31.156Z,17.63
2023-05-06T00:51:59.945Z,14.02
2023-05-06T00:54:29.785Z,14.32
2023-05-06T00:56:57.862Z,14.20
2023-05-06T00:59:27.074Z,15.40
2023-05-06T01:01:54.877Z,13.23
2023-05-06T01:04:24.058Z,15.60
2023-05-06T01:06:59.737Z,15.48
2023-05-06T01:09:34.907Z,14.82
2023-05-06T01:12:08.907Z,14.82
2023-05-06T01:14:51.092Z,15.98
2023-05-06T01:17:20.155Z,13.32
2023-05-06T01:19:50.114Z,16.08
2023-05-06T01:22:17.901Z,17.23
2023-05-06T01:24:47.977Z,15.05
2023-05-06T01:27:16.710Z,13.73
2023-05-06T01:29:47.715Z,17.95
2023-05-06T01:32:36.963Z,13.90
2023-05-06T01:35:13.052Z,14.88
2023-05-06T01:37:47.356Z,13.60
2023-05-06T01:40:19.033Z,13.68
2023-05-06T01:42:49.176Z,14.30
2023-05-06T01:45:19.156Z,13.65
2023-05-06T01:47:48.135Z,15.27
2023-05-06T01:50:16.821Z,13.57
2023-05-06T01:52:44.564Z,15.35
2023-05-06T01:55:12.350Z,13.13
2023-05-06T01:57:41.572Z,13.27
2023-05-06T02:00:10.891Z,14.85
2023-05-06T02:02:38.871Z,15.77
2023-05-06T02:05:08.068Z,14.57
2023-05-06T02:07:35.967Z,15.35
2023-05-06T02:10:03.727Z,16.00
2023-05-06T02:12:31.502Z,15.18
2023-05-06T02:15:00.679Z,13.00
2023-05-06T02:17:28.465Z,14.23
2023-05-06T02:19:56.262Z,15.90
2023-05-06T02:22:24.125Z,13.40
2023-05-06T02:24:51.862Z,14.50
2023-05-06T02:27:19.846Z,16.17
2023-05-06T02:29:47.567Z,15.60
2023-05-06T02:32:16.648Z,14.27
2023-05-06T02:34:44.365Z,15.88
2023-05-06T02:37:12.080Z,15.10
2023-05-06T02:39:39.853Z,13.50
2023-05-06T02:42:07.832Z,17.65
2023-05-06T02:44:35.681Z,16.45
2023-05-06T02:47:03.531Z,18.42
2023-05-06T02:49:32.650Z,15.82
2023-05-06T02:52:00.414Z,16.10
2023-05-06T02:54:28.306Z,16.85
2023-05-06T02:56:56.119Z,20.58
2023-05-06T02:59:24.352Z,24.10
2023-05-06T03:01:52.108Z,17.95
2023-05-06T03:04:19.938Z,22.25
2023-05-06T03:06:49.086Z,19.20
2023-05-06T03:09:17.017Z,15.85
2023-05-06T03:11:44.772Z,15.70
2023-05-06T03:14:12.475Z,18.00
2023-05-06T03:16:40.219Z,14.75
2023-05-06T03:19:08.129Z,21.40
2023-05-06T03:21:35.975Z,21.58
2023-05-06T03:24:05.614Z,20.27
2023-05-06T03:26:33.369Z,17.65
2023-05-06T03:29:01.216Z,16.77
2023-05-06T03:31:28.970Z,16.65
2023-05-06T03:33:56.753Z,20.05
2023-05-06T03:36:25.239Z,18.98
2023-05-06T03:38:53.054Z,18.50
2023-05-06T03:41:22.421Z,15.57
2023-05-06T03:43:50.148Z,17.08
2023-05-06T03:46:17.939Z,18.10
2023-05-06T03:48:45.672Z,19.02
2023-05-06T03:51:13.486Z,23.73
2023-05-06T03:53:41.306Z,28.27
2023-05-06T03:56:09.443Z,18.88
2023-05-06T03:58:38.545Z,18.08
2023-05-06T04:01:06.389Z,16.80
2023-05-06T04:03:34.190Z,17.17
2023-05-06T04:06:02.051Z,19.17
2023-05-06T04:08:29.815Z,23.75
2023-05-06T04:10:57.544Z,17.95
2023-05-06T04:13:25.353Z,18.27
2023-05-06T04:15:54.534Z,20.52
2023-05-06T04:18:22.293Z,17.50
2023-05-06T04:20:50.288Z,23.00
2023-05-06T04:23:18.094Z,25.77
2023-05-06T04:25:48.712Z,24.20
2023-05-06T04:28:17.659Z,24.85
2023-05-06T04:30:45.955Z,23.88
2023-05-06T04:33:15.159Z,20.55
2023-05-06T04:35:53.756Z,23.48
2023-05-06T04:38:23.689Z,23.88
2023-05-06T04:40:51.437Z,24.90
2023-05-06T04:43:19.356Z,21.80
2023-05-06T04:45:49.348Z,21.65
2023-05-06T04:48:20.052Z,24.45
2023-05-06T04:50:47.801Z,20.10
2023-05-06T04:53:16.007Z,25.40
2023-05-06T04:55:43.797Z,24.63
2023-05-06T04:58:11.638Z,23.67
2023-05-06T05:00:39.586Z,21.77
2023-05-06T05:03:07.555Z,20.15
2023-05-06T05:05:36.903Z,25.77
2023-05-06T05:08:04.762Z,29.30
2023-05-06T05:10:32.906Z,27.33
2023-05-06T05:13:00.779Z,22.80
2023-05-06T05:15:28.612Z,26.25
2023-05-06T05:17:56.447Z,25.75
2023-05-06T05:20:24.415Z,23.92
2023-05-06T05:22:53.605Z,24.25
2023-05-06T05:25:21.355Z,33.20
2023-05-06T05:27:49.247Z,27.45
2023-05-06T05:30:18.461Z,27.52
2023-05-06T05:32:46.246Z,26.90
2023-05-06T05:35:14.266Z,20.15
2023-05-06T05:37:42.081Z,28.20
2023-05-06T05:40:11.973Z,21.13
2023-05-06T05:42:40.088Z,25.98
2023-05-06T05:45:09.230Z,23.95
2023-05-06T05:47:37.184Z,26.85
2023-05-06T05:50:05.462Z,27.20
2023-05-06T05:52:33.271Z,24.23
2023-05-06T05:55:01.075Z,23.33
2023-05-06T05:57:30.806Z,21.27
2023-05-06T05:59:58.574Z,23.17
2023-05-06T06:02:26.619Z,22.02
2023-05-06T06:04:54.556Z,22.85
2023-05-06T06:07:22.427Z,21.50
2023-05-06T06:09:50.506Z,24.70
2023-05-06T06:12:18.915Z,24.80
2023-05-06T06:14:48.505Z,20.70
2023-05-06T06:17:16.407Z,21.58
2023-05-06T06:19:46.630Z,24.67
2023-05-06T06:22:14.699Z,23.02
2023-05-06T06:24:45.460Z,25.55
2023-05-06T06:27:13.244Z,25.85
2023-05-06T06:29:40.977Z,24.98
2023-05-06T06:32:10.186Z,22.58
2023-05-06T06:34:38.107Z,26.55
2023-05-06T06:37:07.423Z,26.90
2023-05-06T06:39:35.839Z,22.83
2023-05-06T06:42:04.368Z,23.23
2023-05-06T06:44:32.237Z,24.92
2023-05-06T06:47:00.131Z,24.60
2023-05-06T06:49:29.312Z,26.27
2023-05-06T06:51:57.788Z,25.08
2023-05-06T06:54:25.914Z,24.40
2023-05-06T06:56:57.389Z,24.63
2023-05-06T06:59:25.315Z,22.92
2023-05-06T07:01:53.198Z,23.80
2023-05-06T07:04:21.008Z,20.67
2023-05-06T07:06:50.336Z,26.15
2023-05-06T07:09:18.170Z,22.70
2023-05-06T07:11:46.038Z,27.42
2023-05-06T07:14:14.195Z,21.25
2023-05-06T07:16:43.895Z,22.13
2023-05-06T07:19:13.100Z,21.00
2023-05-06T07:21:40.922Z,19.17
2023-05-06T07:24:10.365Z,20.42
2023-05-06T07:26:38.370Z,30.23
2023-05-06T07:29:06.544Z,22.92
2023-05-06T07:31:34.712Z,26.20
2023-05-06T07:34:02.626Z,20.80
2023-05-06T07:36:35.746Z,22.05
2023-05-06T07:39:04.898Z,20.38
2023-05-06T07:41:34.102Z,22.92
2023-05-06T07:44:02.096Z,23.42
2023-05-06T07:46:30.184Z,20.60
2023-05-06T07:48:58.085Z,21.60
2023-05-06T07:51:26.845Z,19.85
2023-05-06T07:53:54.741Z,24.48
2023-05-06T07:56:22.659Z,21.60
2023-05-06T07:58:51.905Z,26.80
2023-05-06T08:01:19.808Z,20.08
2023-05-06T08:03:47.708Z,24.90
2023-05-06T08:06:15.716Z,22.20
2023-05-06T08:08:43.535Z,27.00
2023-05-06T08:11:11.353Z,22.23
2023-05-06T08:13:39.291Z,22.90
2023-05-06T08:16:09.085Z,22.60
2023-05-06T08:18:37.194Z,25.75
2023-05-06T08:21:05.793Z,19.55
2023-05-06T08:23:33.733Z,19.33
2023-05-06T08:26:01.980Z,19.63
2023-05-06T08:28:30.476Z,20.88
2023-05-06T08:30:58.259Z,17.15
2023-05-06T08:33:27.691Z,19.88
2023-05-06T08:35:57.592Z,21.75
2023-05-06T08:38:26.745Z,20.88
2023-05-06T08:40:55.996Z,27.88
2023-05-06T08:43:28.544Z,17.83
2023-05-06T08:45:56.549Z,23.65
2023-05-06T08:48:24.424Z,21.27
2023-05-06T08:50:56.956Z,32.33
2023-05-06T08:53:25.762Z,24.48
2023-05-06T08:55:56.201Z,20.67
2023-05-06T08:58:27.296Z,17.90
2023-05-06T09:00:55.182Z,20.73
2023-05-06T09:03:23.519Z,20.80
2023-05-06T09:05:51.394Z,22.55
2023-05-06T09:08:20.991Z,25.15
2023-05-06T09:10:49.050Z,24.52
2023-05-06T09:13:18.690Z,19.23
2023-05-06T09:15:48.318Z,23.27
2023-05-06T09:18:16.735Z,28.77
2023-05-06T09:20:46.118Z,24.48
2023-05-06T09:23:15.707Z,20.70
2023-05-06T09:25:46.954Z,25.65
2023-05-06T09:28:15.456Z,22.75
2023-05-06T09:30:44.883Z,24.88
2023-05-06T09:33:13.005Z,20.52
2023-05-06T09:35:42.351Z,21.73
2023-05-06T09:38:11.041Z,21.90
2023-05-06T09:40:39.982Z,29.60
2023-05-06T09:43:10.589Z,22.70
2023-05-06T09:45:38.473Z,23.98
2023-05-06T09:48:09.422Z,21.80
2023-05-06T09:50:38.237Z,19.63
2023-05-06T09:53:09.400Z,19.67
2023-05-06T09:55:38.477Z,18.17
2023-05-06T09:58:07.867Z,19.85
2023-05-06T10:00:37.836Z,16.90
2023-05-06T10:03:06.274Z,18.08
2023-05-06T10:05:36.373Z,18.73
2023-05-06T10:08:05.177Z,11.30
2023-05-06T10:10:35.029Z,15.80
2023-05-06T10:13:03.725Z,12.13
2023-05-06T10:15:33.379Z,15.07
2023-05-06T10:18:02.872Z,11.57
2023-05-06T10:20:32.904Z,15.68
2023-05-06T10:23:17.941Z,18.33
2023-05-06T10:25:47.959Z,12.68
2023-05-06T10:28:24.438Z,11.63
2023-05-06T10:31:00.024Z,15.60
2023-05-06T10:33:30.116Z,16.25
2023-05-06T10:36:08.654Z,13.55
2023-05-06T10:38:41.706Z,10.15
2023-05-06T10:41:11.271Z,11.15
2023-05-06T10:43:42.338Z,13.90
2023-05-06T10:46:11.840Z,12.90
2023-05-06T10:49:17.179Z,12.02
2023-05-06T10:51:45.066Z,10.10
2023-05-06T10:54:23.508Z,8.88
2023-05-06T10:57:11.379Z,8.80
2023-05-06T10:59:47.024Z,9.00
2023-05-06T11:02:15.598Z,9.10
2023-05-06T11:04:51.582Z,9.32
2023-05-06T11:07:24.010Z,9.35
2023-05-06T11:09:56.314Z,6.78
2023-05-06T11:12:44.380Z,9.10
2023-05-06T11:15:38.554Z,8.27
2023-05-06T11:20:50.843Z,8.55
2023-05-06T11:23:19.522Z,11.45
2023-05-06T11:25:48.142Z,8.35
2023-05-06T11:28:16.414Z,8.07
2023-05-06T11:30:45.509Z,12.48
2023-05-06T11:33:19.134Z,9.52
2023-05-06T11:38:16.110Z,11.90
2023-05-06T11:40:43.914Z,11.00
2023-05-06T11:43:13.352Z,9.77
2023-05-06T11:45:42.376Z,11.05
2023-05-06T11:48:12.826Z,10.48
2023-05-06T11:50:44.793Z,8.45
2023-05-06T11:53:12.652Z,10.20
2023-05-06T11:55:42.053Z,9.23
2023-05-06T11:58:14.088Z,11.27
2023-05-06T12:00:49.691Z,10.18
2023-05-06T12:03:19.284Z,10.18
2023-05-06T12:05:48.000Z,10.23
2023-05-06T12:08:26.711Z,10.75
2023-05-06T12:10:59.839Z,10.40
2023-05-06T12:13:28.382Z,14.68
2023-05-06T12:15:57.323Z,8.48
2023-05-06T12:18:25.613Z,10.02
2023-05-06T12:20:54.837Z,12.13
2023-05-06T12:23:22.872Z,8.50
2023-05-06T12:26:04.308Z,10.57
2023-05-06T12:28:32.855Z,12.80
2023-05-06T12:31:00.799Z,10.90
2023-05-06T12:33:28.905Z,13.85
2023-05-06T12:36:07.793Z,10.02
2023-05-06T12:38:35.627Z,12.30
2023-05-06T12:41:07.003Z,10.90
2023-05-06T12:43:34.835Z,11.98
2023-05-06T12:46:07.267Z,8.93
2023-05-06T12:48:35.485Z,8.65
2023-05-06T12:51:18.706Z,9.68
2023-05-06T12:53:46.433Z,8.65
2023-05-06T12:56:15.749Z,12.40
2023-05-06T12:58:43.532Z,11.10
2023-05-06T13:01:11.375Z,22.02
2023-05-06T13:03:41.047Z,11.00
2023-05-06T13:06:08.941Z,9.13
2023-05-06T13:08:36.864Z,8.85
2023-05-06T13:11:04.710Z,7.93
2023-05-06T13:13:33.864Z,10.70
2023-05-06T13:16:01.738Z,7.57
2023-05-06T13:18:30.503Z,8.52
2023-05-06T13:21:00.245Z,10.63
2023-05-06T13:23:28.326Z,7.55
2023-05-06T13:26:04.307Z,8.15
2023-05-06T13:28:36.633Z,8.27
2023-05-06T13:31:04.992Z,8.52
2023-05-06T13:33:33.504Z,9.25
2023-05-06T13:36:03.406Z,8.50
2023-05-06T13:38:32.931Z,5.45
2023-05-06T13:41:01.664Z,4.30
2023-05-06T13:43:29.390Z,7.38
2023-05-06T13:45:58.530Z,7.65
2023-05-06T13:48:26.320Z,6.40
2023-05-06T13:50:54.096Z,4.50
2023-05-06T13:53:22.390Z,4.32
2023-05-06T13:55:50.155Z,4.68
2023-05-06T13:58:18.201Z,3.20
2023-05-06T14:00:46.003Z,5.30
2023-05-06T14:03:15.117Z,6.50
2023-05-06T14:05:42.952Z,6.05
2023-05-06T14:08:10.682Z,4.90
2023-05-06T14:10:38.418Z,5.90
2023-05-06T14:13:07.272Z,8.25
2023-05-06T14:15:35.426Z,6.03
2023-05-06T14:18:03.251Z,4.00
2023-05-06T14:20:32.622Z,4.25
2023-05-06T14:23:00.380Z,5.10
2023-05-06T14:25:28.171Z,29.25
2023-05-06T14:27:56.259Z,141.73
2023-05-06T14:30:24.058Z,15.88
2023-05-06T14:32:51.807Z,12.52
2023-05-06T14:35:19.899Z,128.85
2023-05-06T14:37:49.086Z,20.02
2023-05-06T14:40:17.174Z,27.98
2023-05-06T14:42:45.841Z,16.70
2023-05-06T14:45:15.856Z,19.35
2023-05-06T14:47:44.121Z,6.60
2023-05-06T14:50:12.670Z,7.93
2023-05-06T14:52:41.888Z,6.03
2023-05-06T14:55:12.352Z,4.15
2023-05-06T14:57:40.368Z,4.20
2023-05-06T15:00:10.396Z,4.05
2023-05-06T15:02:40.628Z,3.13
2023-05-06T15:05:09.937Z,4.15
2023-05-06T15:07:38.021Z,3.05
2023-05-06T15:10:06.544Z,3.50
2023-05-06T15:12:37.378Z,4.68
2023-05-06T15:15:12.901Z,6.00
2023-05-06T15:17:46.368Z,7.03
2023-05-06T15:20:14.677Z,3.20
2023-05-06T15:22:42.462Z,4.70
2023-05-06T15:25:19.402Z,7.93
2023-05-06T15:27:55.603Z,5.35
2023-05-06T15:30:23.417Z,6.05
2023-05-06T15:32:51.230Z,5.10
2023-05-06T15:35:18.975Z,4.80
2023-05-06T15:37:46.763Z,6.07
2023-05-06T15:40:14.988Z,5.72
2023-05-06T15:42:42.723Z,7.07
2023-05-06T15:45:12.830Z,10.98
2023-05-06T15:47:40.937Z,5.00
2023-05-06T15:50:20.059Z,9.15
2023-05-06T15:52:53.138Z,3.63
2023-05-06T15:55:21.204Z,5.00
2023-05-06T15:57:48.932Z,4.30
2023-05-06T16:00:18.598Z,8.05
2023-05-06T16:02:46.550Z,5.47
2023-05-06T16:05:14.498Z,8.27
2023-05-06T16:07:42.469Z,5.55
2023-05-06T16:10:10.542Z,11.65
2023-05-06T16:12:38.962Z,7.10
2023-05-06T16:15:08.334Z,6.63
2023-05-06T16:17:38.362Z,6.95
2023-05-06T16:20:08.994Z,6.45
2023-05-06T16:22:39.297Z,5.15
2023-05-06T16:25:08.136Z,5.20
2023-05-06T16:27:35.899Z,3.75
2023-05-06T16:30:03.700Z,7.13
2023-05-06T16:32:31.466Z,15.20
2023-05-06T16:35:00.717Z,8.13
2023-05-06T16:37:29.130Z,6.35
2023-05-06T16:39:56.945Z,8.18
2023-05-06T16:42:24.744Z,262.80
2023-05-06T16:44:52.772Z,490.23
2023-05-06T16:47:23.395Z,179.18
2023-05-06T16:49:51.863Z,192.68
2023-05-06T16:52:21.325Z,198.35
2023-05-06T16:54:51.237Z,415.60
2023-05-06T16:57:19.403Z,203.20
2023-05-06T16:59:47.194Z,361.45
2023-05-06T17:02:15.026Z,402.58
2023-05-06T17:04:43.062Z,1318.68
2023-05-06T17:07:11.401Z,487.15
2023-05-06T17:09:40.856Z,772.05
2023-05-06T17:12:08.923Z,654.17
2023-05-06T17:14:36.778Z,318.45
2023-05-06T17:17:05.628Z,177.60
2023-05-06T17:19:34.545Z,347.13
2023-05-06T17:22:02.399Z,632.67
2023-05-06T17:24:30.279Z,549.85
2023-05-06T17:26:59.754Z,461.42
2023-05-06T17:29:27.694Z,344.58
2023-05-06T17:31:56.304Z,374.70
2023-05-06T17:34:24.389Z,23.13
2023-05-06T17:36:52.202Z,172.75
2023-05-06T17:39:20.693Z,34.67
2023-05-06T17:41:48.765Z,21.77
2023-05-06T17:44:18.501Z,24.58
2023-05-06T17:46:46.636Z,18.67
2023-05-06T17:49:14.575Z,8.88
2023-05-06T17:51:46.080Z,11.73
2023-05-06T17:54:14.057Z,11.23
2023-05-06T17:56:42.191Z,11.02
2023-05-06T17:59:11.334Z,8.55
2023-05-06T18:01:41.690Z,9.25
2023-05-06T18:04:09.717Z,10.68
2023-05-06T18:06:37.561Z,8.20
2023-05-06T18:09:05.388Z,7.82
2023-05-06T18:11:33.222Z,8.02
2023-05-06T18:14:01.047Z,7.95
2023-05-06T18:16:29.018Z,11.52
2023-05-06T18:18:58.371Z,9.82
2023-05-06T18:21:26.414Z,11.95
2023-05-06T18:23:58.862Z,9.32
2023-05-06T18:26:44.139Z,14.63
2023-05-06T18:29:13.450Z,10.50
2023-05-06T18:31:41.269Z,8.77
2023-05-06T18:34:10.552Z,11.30
2023-05-06T18:36:38.340Z,8.80
2023-05-06T18:39:06.351Z,10.05
2023-05-06T18:41:34.293Z,9.88
2023-05-06T18:44:03.276Z,9.88
2023-05-06T18:46:31.268Z,6.70
2023-05-06T18:49:00.738Z,5.28
2023-05-06T18:51:29.915Z,13.10
2023-05-06T18:53:57.714Z,7.03
2023-05-06T18:56:25.552Z,11.63
2023-05-06T18:58:53.424Z,10.85
2023-05-06T19:01:21.410Z,9.38
2023-05-06T19:03:49.277Z,12.43
2023-05-06T19:06:17.368Z,8.73
2023-05-06T19:08:46.889Z,7.65
2023-05-06T19:11:16.435Z,8.55
2023-05-06T19:13:44.965Z,10.70
2023-05-06T19:16:12.964Z,10.50
2023-05-06T19:18:40.913Z,17.83
2023-05-06T19:21:10.920Z,8.32
2023-05-06T19:23:38.707Z,9.63
2023-05-06T19:26:09.934Z,10.15
2023-05-06T19:28:38.117Z,11.30
2023-05-06T19:31:08.504Z,8.50
2023-05-06T19:33:36.740Z,16.02
2023-05-06T19:36:05.506Z,13.13
2023-05-06T19:38:33.455Z,9.65
2023-05-06T19:41:01.362Z,17.77
2023-05-06T19:43:30.573Z,12.13
2023-05-06T19:45:58.534Z,9.43
2023-05-06T19:48:26.542Z,14.98
2023-05-06T19:50:54.351Z,10.55
2023-05-06T19:53:24.104Z,11.73
2023-05-06T19:55:52.060Z,13.40
2023-05-06T19:58:19.859Z,11.18
2023-05-06T20:00:49.691Z,10.45
2023-05-06T20:03:17.718Z,13.13
2023-05-06T20:05:45.586Z,14.13
2023-05-06T20:08:13.449Z,10.13
2023-05-06T20:10:41.258Z,13.20
2023-05-06T20:13:10.658Z,15.57
2023-05-06T20:15:38.580Z,14.65
2023-05-06T20:18:08.026Z,15.10
2023-05-06T20:20:36.371Z,13.75
2023-05-06T20:23:04.553Z,14.50
2023-05-06T20:25:32.604Z,16.83
2023-05-06T20:28:00.627Z,11.60
2023-05-06T20:30:28.469Z,13.68
2023-05-06T20:32:56.449Z,12.95
2023-05-06T20:35:25.880Z,15.27
2023-05-06T20:37:54.511Z,11.38
2023-05-06T20:40:22.823Z,14.57
2023-05-06T20:42:50.896Z,16.13
2023-05-06T20:45:18.817Z,14.02
2023-05-06T20:47:46.673Z,14.38
2023-05-06T20:50:17.045Z,14.30
2023-05-06T20:52:48.282Z,12.15
2023-05-06T20:55:16.398Z,15.18
2023-05-06T20:57:44.609Z,12.55
2023-05-06T21:00:13.327Z,14.63
2023-05-06T21:02:42.223Z,13.80
2023-05-06T21:05:10.758Z,13.40
2023-05-06T21:07:38.960Z,12.50
2023-05-06T21:10:09.089Z,14.80
2023-05-06T21:12:37.178Z,13.68
2023-05-06T21:15:06.257Z,14.90
2023-05-06T21:17:34.280Z,14.52
2023-05-06T21:20:03.640Z,15.23
2023-05-06T21:22:32.056Z,15.23
2023-05-06T21:24:59.970Z,17.30
2023-05-06T21:27:29.158Z,17.10
2023-05-06T21:29:56.993Z,15.40
2023-05-06T21:32:24.837Z,16.05
2023-05-06T21:34:52.666Z,17.17
2023-05-06T21:37:20.575Z,17.65
2023-05-06T21:39:48.348Z,18.23
2023-05-06T21:42:16.083Z,14.80
2023-05-06T21:44:45.225Z,27.17
2023-05-06T21:47:13.023Z,19.52
2023-05-06T21:49:40.872Z,15.68
2023-05-06T21:52:08.642Z,15.68
2023-05-06T21:54:36.535Z,17.30
2023-05-06T21:57:07.893Z,16.65
2023-05-06T21:59:36.389Z,16.80
2023-05-06T22:02:05.923Z,19.65
2023-05-06T22:04:33.745Z,17.08
2023-05-06T22:07:01.509Z,18.08
2023-05-06T22:09:29.326Z,18.05
2023-05-06T22:11:57.756Z,18.05
2023-05-06T22:14:30.224Z,14.57
2023-05-06T22:17:08.055Z,11.57
2023-05-06T22:19:36.111Z,15.60
2023-05-06T22:22:04.384Z,13.50
2023-05-06T22:24:32.220Z,16.10
2023-05-06T22:27:00.067Z,15.13
2023-05-06T22:29:27.802Z,11.95
2023-05-06T22:31:55.833Z,12.27
2023-05-06T22:34:25.082Z,13.93
2023-05-06T22:36:52.831Z,14.55
2023-05-06T22:39:20.577Z,13.13
2023-05-06T22:41:50.742Z,16.08
2023-05-06T22:44:18.574Z,16.58
2023-05-06T22:46:46.416Z,15.75
2023-05-06T22:49:14.475Z,14.88
2023-05-06T22:51:43.771Z,17.77
2023-05-06T22:54:11.498Z,16.73
2023-05-06T22:56:39.223Z,17.10
2023-05-06T22:59:07.455Z,22.08
2023-05-06T23:01:35.361Z,17.38
2023-05-06T23:04:03.384Z,15.35
2023-05-06T23:06:31.749Z,15.13
2023-05-06T23:09:00.846Z,15.73
2023-05-06T23:11:28.665Z,19.90
2023-05-06T23:13:56.429Z,14.98
2023-05-06T23:16:24.234Z,18.10
2023-05-06T23:18:53.767Z,19.92
2023-05-06T23:21:21.543Z,19.50
2023-05-06T23:23:49.351Z,18.25
2023-05-06T23:26:18.524Z,16.17
2023-05-06T23:28:46.366Z,18.75
2023-05-06T23:31:14.153Z,18.13
2023-05-06T23:33:42.040Z,17.60
2023-05-06T23:36:09.884Z,16.20
2023-05-06T23:38:37.631Z,20.70
2023-05-06T23:41:05.468Z,20.15
2023-05-06T23:43:34.586Z,22.58
2023-05-06T23:46:02.394Z,24.60
2023-05-06T23:48:30.220Z,21.83
2023-05-06T23:50:58.115Z,26.30
2023-05-06T23:53:26.100Z,22.48
2023-05-06T23:55:53.855Z,20.60
2023-05-06T23:58:21.572Z,24.23
